Latest Weather Observations for Middle Point

IDD60901

Issued at 5:41 pm CST Thursday 23 March 2017 (issued every 10 minutes, with the page automatically refreshed every 10 minutes)

About weather observations | Map of Darwin area stations | Latest observations for Darwin area | Other Formats
Station Details ID: 014041 Name: MIDDLE POINT Lat: -12.61 Lon: 131.30 Height: 14.1 m
Data from the previous 72 hours. | See also: Recent months at Middle Point
Date/Time
CST
Temp
°C
App
Temp
°C
Dew
Point
°C
Rel
Hum
%
Delta-T
°C
Wind Press
QNH
hPa
Press
MSL
hPa
Rain since
9am
mm
Dir  Spd
km/h
Gust
km/h
Spd
kts
Gust
kts
23/05:30pm 30.6 36.0 25.2 73 3.8 N 6 9 3 5 1006.1 1006.0 0.0
23/05:00pm 31.1 36.1 24.5 68 4.6 NNW 6 9 3 5 1006.0 1005.9 0.0
23/04:30pm 32.0 36.6 25.3 67 4.8 N 11 17 6 9 1005.9 1005.8 0.0
23/04:00pm 31.5 36.9 25.4 70 4.3 N 7 11 4 6 1006.1 1006.0 0.0
23/03:30pm 31.1 37.7 27.2 80 2.8 NW 7 11 4 6 1006.3 1006.2 0.0
23/03:00pm 29.7 33.9 25.9 80 2.7 N 15 22 8 12 1006.8 1006.7 0.0
23/02:30pm 32.0 36.3 24.3 63 5.4 NE 9 15 5 8 1007.1 1007.0 0.0
23/02:00pm 33.0 36.7 23.3 56 6.7 NE 9 19 5 10 1007.2 1007.1 0.0
23/01:30pm 32.9 37.5 23.8 58 6.3 WNW 6 11 3 6 1007.8 1007.7 0.0
23/01:00pm 31.5 36.5 23.9 64 5.3 S 4 9 2 5 1008.4 1008.3 0.0
23/12:30pm 31.5 36.4 23.6 63 5.5 ESE 4 7 2 4 1008.9 1008.8 0.0
23/12:00pm 31.5 36.6 24.1 65 5.2 ESE 4 6 2 3 1009.4 1009.3 0.0
23/11:30am 30.6 35.4 24.5 70 4.3 N 7 9 4 5 1009.8 1009.7 0.0
23/11:00am 30.1 35.2 24.7 73 3.8 NNW 6 7 3 4 1010.3 1010.2 0.0
23/10:30am 29.6 35.2 24.9 76 3.3 N 4 7 2 4 1010.5 1010.4 0.0
23/10:00am 28.8 34.1 25.0 80 2.7 NNW 6 13 3 7 1010.5 1010.4 0.0
23/09:30am 28.2 34.7 25.6 86 1.8 NW 2 4 1 2 1010.6 1010.5 0.0
23/09:00am 27.5 34.0 25.1 87 1.7 CALM 0 0 0 0 1010.3 1010.2 0.2
23/08:30am 27.0 33.8 25.6 92 1.0 CALM 0 4 0 2 1010.1 1010.0 0.2
23/08:00am 26.6 33.4 25.6 94 0.7 CALM 0 2 0 1 1009.6 1009.5 0.2
23/07:30am 25.3 31.9 25.3 100 0.0 CALM 0 0 0 0 1009.2 1009.1 0.2
23/07:00am 24.8 31.1 24.8 100 0.0 CALM 0 0 0 0 1008.8 1008.7 0.2
23/06:30am 24.6 30.7 24.4 99 0.1 CALM 0 0 0 0 1008.4 1008.3 0.2
23/06:00am 24.9 31.2 24.7 99 0.1 CALM 0 0 0 0 1008.3 1008.2 0.2
23/05:30am 25.2 31.8 25.2 100 0.0 CALM 0 0 0 0 1007.9 1007.8 0.2
23/05:00am 25.1 31.6 25.1 100 0.0 CALM 0 0 0 0 1008.1 1008.0 0.2
23/04:30am 25.2 31.0 25.2 100 0.0 WNW 4 6 2 3 1008.1 1008.0 0.2
23/04:00am 25.2 31.4 25.2 100 0.0 NW 2 4 1 2 1008.1 1008.0 0.2
23/03:30am 25.2 31.8 25.2 100 0.0 CALM 0 0 0 0 1008.0 1007.9 0.2
23/03:00am 25.0 31.5 25.0 100 0.0 CALM 0 0 0 0 1008.1 1008.0 0.2
23/02:30am 25.2 31.8 25.2 100 0.0 CALM 0 0 0 0 1008.3 1008.2 0.2
23/02:00am 25.1 31.5 24.9 99 0.1 CALM 0 0 0 0 1008.5 1008.4 0.2
23/01:30am 25.2 31.7 25.0 99 0.1 CALM 0 0 0 0 1008.9 1008.8 0.2
23/01:00am 25.1 31.4 24.8 98 0.2 CALM 0 0 0 0 1009.6 1009.5 0.2
23/12:30am 25.4 31.8 24.9 97 0.3 CALM 0 0 0 0 1009.6 1009.5 0.2
23/12:00am 25.8 32.4 25.3 97 0.3 CALM 0 0 0 0 1009.9 1009.8 0.2
 
Date/Time
CST
Temp
°C
App
Temp
°C
Dew
Point
°C
Rel
Hum
%
Delta-T
°C
Wind Press
QNH
hPa
Press
MSL
hPa
Rain since
9am
mm
Dir  Spd
km/h
Gust
km/h
Spd
kts
Gust
kts
22/11:30pm 25.9 32.6 25.4 97 0.4 CALM 0 0 0 0 1010.1 1010.0 0.2
22/11:00pm 26.0 32.9 25.7 98 0.2 CALM 0 0 0 0 1010.0 1009.9 0.2
22/10:30pm 25.9 32.7 25.6 98 0.2 CALM 0 0 0 0 1010.2 1010.1 0.2
22/10:00pm 26.1 32.8 25.4 96 0.5 CALM 0 0 0 0 1010.2 1010.1 0.2
22/09:30pm 26.1 31.9 25.2 95 0.6 S 4 6 2 3 1009.7 1009.6 0.2
22/09:00pm 26.3 32.2 25.3 94 0.7 WSW 4 6 2 3 1009.1 1009.0 0.2
22/08:30pm 26.6 33.4 25.6 94 0.7 CALM 0 0 0 0 1008.9 1008.8 0.2
22/08:00pm 26.7 33.3 25.8 95 0.6 WSW 2 6 1 3 1008.4 1008.3 0.2
22/07:30pm 26.8 32.9 25.6 93 0.8 SW 4 6 2 3 1008.2 1008.1 0.2
22/07:00pm 26.9 32.1 25.1 90 1.3 WSW 7 9 4 5 1007.7 1007.6 0.2
22/06:30pm 27.4 32.3 25.2 88 1.5 SW 9 13 5 7 1007.3 1007.2 0.2
22/06:00pm 28.6 33.6 24.8 80 2.7 WSW 7 13 4 7 1006.8 1006.7 0.2
22/05:30pm 29.4 34.2 24.5 75 3.4 W 7 9 4 5 1006.8 1006.7 0.2
22/05:00pm 30.6 34.2 24.3 69 4.4 W 13 17 7 9 1006.7 1006.6 0.2
22/04:30pm 30.1 34.2 24.5 72 3.9 WNW 11 17 6 9 1006.4 1006.3 0.2
22/04:00pm 30.7 34.9 26.0 76 3.3 NW 15 22 8 12 1006.6 1006.5 0.2
22/03:30pm 31.4 35.5 25.7 71 4.1 NNW 15 19 8 10 1006.5 1006.4 0.2
22/03:00pm 30.0 34.4 25.1 75 3.5 NNW 11 19 6 10 1007.0 1006.9 0.2
22/02:30pm 30.8 35.0 25.4 73 3.8 N 13 20 7 11 1007.3 1007.2 0.2
22/02:00pm 30.1 34.6 25.2 75 3.5 N 11 15 6 8 1007.5 1007.4 0.2
22/01:30pm 30.0 34.3 24.9 74 3.6 N 11 15 6 8 1008.2 1008.1 0.2
22/01:00pm 29.7 33.9 25.4 78 3.0 NNE 13 19 7 10 1008.6 1008.5 0.2
22/12:30pm 30.3 35.7 25.4 75 3.5 N 7 13 4 7 1008.8 1008.7 0.2
22/12:00pm 28.9 33.6 24.9 79 2.8 N 9 13 5 7 1009.4 1009.3 0.2
22/11:30am 28.4 30.7 25.0 82 2.4 N 22 28 12 15 1010.1 1010.0 0.2
22/11:00am 30.4 35.4 24.8 72 3.9 E 7 11 4 6 1010.2 1010.1 0.2
22/10:30am 29.2 34.6 25.2 79 2.8 ESE 6 9 3 5 1010.4 1010.3 0.2
22/10:00am 27.8 33.4 25.4 87 1.7 E 6 7 3 4 1011.0 1010.8 0.0
22/09:30am 27.7 33.5 25.7 89 1.4 SE 6 9 3 5 1010.4 1010.3 0.0
22/09:00am 27.3 33.3 25.5 90 1.3 SSE 4 7 2 4 1010.3 1010.2 1.0
22/08:30am 26.8 32.7 25.4 92 1.0 SE 4 6 2 3 1010.0 1009.9 1.0
22/08:00am 25.9 32.0 25.7 99 0.1 SE 4 6 2 3 1009.3 1009.2 1.0
22/07:30am 25.6 31.3 25.6 100 0.0 ESE 6 9 3 5 1009.0 1008.9 1.0
22/07:00am 25.4 31.3 25.4 100 0.0 SSE 4 4 2 2 1009.1 1009.0 1.0
22/06:30am 25.5 31.9 25.5 100 0.0 SSW 2 4 1 2 1008.8 1008.7 1.0
22/06:00am 25.4 32.1 25.4 100 0.0 CALM 0 0 0 0 1008.6 1008.5 1.0
22/05:30am 25.3 31.6 25.3 100 0.0 WSW 2 4 1 2 1007.8 1007.7 1.0
22/05:00am 25.3 31.6 25.3 100 0.0 SSE 2 4 1 2 1007.5 1007.4 1.0
22/04:30am 25.1 31.6 25.1 100 0.0 CALM 0 2 0 1 1007.5 1007.4 1.0
22/04:00am 25.1 30.7 24.9 99 0.1 SE 4 6 2 3 1007.9 1007.8 1.0
22/03:30am 25.4 31.6 25.2 99 0.1 SSW 2 4 1 2 1008.1 1008.0 1.0
22/03:00am 25.4 31.2 25.2 99 0.1 WSW 4 7 2 4 1008.2 1008.1 1.0
22/02:30am 25.5 32.1 25.3 99 0.1 CALM 0 0 0 0 1008.3 1008.2 1.0
22/02:00am 25.4 32.0 25.2 99 0.1 CALM 0 0 0 0 1008.8 1008.7 1.0
22/01:30am 25.4 32.0 25.2 99 0.1 CALM 0 0 0 0 1009.1 1009.0 1.0
22/01:00am 25.4 32.0 25.2 99 0.1 CALM 0 0 0 0 1009.4 1009.3 1.0
22/12:30am 25.3 31.1 25.1 99 0.1 WNW 4 6 2 3 1009.7 1009.6 1.0
22/12:00am 25.5 32.1 25.2 98 0.2 CALM 0 0 0 0 1009.6 1009.5 1.0
 
Date/Time
CST
Temp
°C
App
Temp
°C
Dew
Point
°C
Rel
Hum
%
Delta-T
°C
Wind Press
QNH
hPa
Press
MSL
hPa
Rain since
9am
mm
Dir  Spd
km/h
Gust
km/h
Spd
kts
Gust
kts
21/11:30pm 25.6 31.9 25.3 98 0.2 WNW 2 4 1 2 1009.8 1009.7 1.0
21/11:00pm 25.7 31.6 25.4 98 0.2 NW 4 6 2 3 1009.9 1009.8 1.0
21/10:30pm 25.9 32.5 25.2 96 0.5 CALM 0 0 0 0 1009.8 1009.7 1.0
21/10:00pm 26.0 31.8 25.1 95 0.6 N 4 6 2 3 1010.2 1010.1 1.0
21/09:30pm 26.2 30.8 25.3 95 0.6 N 11 15 6 8 1009.6 1009.5 1.0
21/09:00pm 26.6 30.7 25.2 92 1.0 N 13 15 7 8 1008.7 1008.6 1.0
21/08:30pm 26.4 32.0 25.7 96 0.5 NNE 7 7 4 4 1008.3 1008.2 1.0
21/08:00pm 26.6 32.2 25.4 93 0.8 N 6 7 3 4 1008.1 1008.0 1.0
21/07:30pm 27.3 33.8 25.7 91 1.1 NNW 2 4 1 2 1007.5 1007.4 1.0
21/07:00pm 27.2 33.0 26.1 94 0.8 NNW 7 9 4 5 1007.0 1006.9 1.0
21/06:30pm 27.2 32.3 25.6 91 1.1 ENE 9 13 5 7 1006.6 1006.5 1.0
21/06:00pm 27.3 33.3 25.5 90 1.3 E 4 6 2 3 1006.5 1006.4 1.0
21/05:30pm 27.6 32.5 25.2 87 1.7 E 9 13 5 7 1006.2 1006.1 1.0
21/05:00pm 27.8 32.5 25.6 88 1.6 ENE 11 15 6 8 1006.2 1006.1 1.0
21/04:30pm 27.8 32.9 25.6 88 1.6 NE 9 13 5 7 1005.9 1005.8 1.0
21/04:00pm 26.7 32.0 25.3 92 1.0 ESE 7 11 4 6 1005.8 1005.7 1.0
21/03:30pm 27.4 32.1 24.3 83 2.2 ESE 7 13 4 7 1006.0 1005.9 0.0
21/03:00pm 31.2 35.8 24.8 69 4.5 N 9 22 5 12 1005.9 1005.8 0.0
21/02:30pm 31.6 35.1 24.2 65 5.2 N 13 19 7 10 1006.0 1005.9 0.0
21/02:00pm 31.1 34.9 24.7 68 4.5 NNE 13 19 7 10 1006.4 1006.3 0.0
21/01:30pm 31.5 37.0 25.6 71 4.2 N 7 15 4 8 1006.9 1006.8 0.0
21/01:00pm 31.5 36.9 25.4 70 4.3 NNW 7 13 4 7 1007.5 1007.4 0.0
21/12:30pm 31.2 36.3 25.5 71 4.0 NNE 9 17 5 9 1008.0 1007.9 0.0
21/12:00pm 30.6 35.4 25.7 75 3.5 N 11 17 6 9 1008.6 1008.5 0.0
21/11:30am 29.9 33.6 25.2 76 3.3 NNW 15 20 8 11 1009.0 1008.9 0.0
21/11:00am 30.2 35.3 25.5 76 3.3 NNW 9 17 5 9 1009.3 1009.2 0.0
21/10:30am 28.9 34.9 25.5 82 2.4 WNW 4 6 2 3 1009.6 1009.5 0.0
21/10:00am 28.1 33.4 25.3 85 2.0 WNW 7 13 4 7 1009.6 1009.5 0.0
21/09:30am 27.1 32.4 24.9 88 1.5 WNW 6 9 3 5 1009.5 1009.4 0.0
21/09:00am 26.1 30.7 24.7 92 1.0 NW 9 11 5 6 1009.2 1009.1 2.0
21/08:30am 25.7 30.6 24.7 94 0.7 NNW 7 11 4 6 1008.7 1008.6 2.0
21/08:00am 25.1 29.1 24.4 96 0.5 NNW 11 15 6 8 1008.5 1008.4 2.0
21/07:30am 24.7 29.5 24.4 98 0.2 NNW 7 13 4 7 1008.4 1008.3 2.0
21/07:00am 24.6 28.6 24.4 99 0.1 N 11 19 6 10 1008.5 1008.4 2.0
21/06:30am 24.3 30.0 23.8 97 0.3 CALM 0 0 0 0 1008.4 1008.3 2.0
21/06:00am 24.5 28.1 23.8 96 0.5 N 11 15 6 8 1008.4 1008.3 2.0
21/05:30am 24.9 26.9 24.0 95 0.6 NNE 20 30 11 16 1008.7 1008.6 2.0
21/05:00am 25.6 30.7 25.6 100 0.0 ENE 9 11 5 6 1008.2 1008.1 2.0
21/04:30am 25.2 30.6 25.2 100 0.0 ENE 6 9 3 5 1008.1 1008.0 2.0
21/04:00am 24.8 31.1 24.8 100 0.0 CALM 0 0 0 0 1007.9 1007.8 2.0
21/03:30am 24.7 31.0 24.7 100 0.0 CALM 0 2 0 1 1007.9 1007.8 2.0
21/03:00am 24.8 31.1 24.8 100 0.0 CALM 0 0 0 0 1008.0 1007.9 2.0
21/02:30am 24.9 31.3 24.9 100 0.0 CALM 0 0 0 0 1008.0 1007.9 2.0
21/02:00am 24.9 30.5 24.9 100 0.0 ESE 4 6 2 3 1008.1 1008.0 2.0
21/01:30am 25.1 31.6 25.1 100 0.0 CALM 0 0 0 0 1008.2 1008.1 2.0
21/01:00am 24.8 31.0 24.6 99 0.1 CALM 0 0 0 0 1008.6 1008.5 2.0
21/12:30am 25.0 31.3 24.8 99 0.1 CALM 0 0 0 0 1008.9 1008.8 2.0
21/12:00am 25.2 31.7 25.0 99 0.1 CALM 0 0 0 0 1008.8 1008.7 2.0
 
Date/Time
CST
Temp
°C
App
Temp
°C
Dew
Point
°C
Rel
Hum
%
Delta-T
°C
Wind Press
QNH
hPa
Press
MSL
hPa
Rain since
9am
mm
Dir  Spd
km/h
Gust
km/h
Spd
kts
Gust
kts
20/11:30pm 25.1 31.4 24.8 98 0.2 CALM 0 0 0 0 1009.0 1008.9 2.0
20/11:00pm 25.6 32.3 25.4 99 0.1 CALM 0 0 0 0 1008.9 1008.8 2.0
20/10:30pm 25.6 31.5 25.3 98 0.2 WNW 4 4 2 2 1008.6 1008.5 2.0
20/10:00pm 25.8 31.9 25.6 99 0.1 NNW 4 4 2 2 1008.6 1008.5 2.0
20/09:30pm 25.8 31.8 25.5 98 0.2 N 4 4 2 2 1008.5 1008.4 2.0
20/09:00pm 25.7 31.6 25.4 98 0.2 N 4 6 2 3 1008.0 1007.9 2.0
20/08:30pm 25.6 32.1 25.1 97 0.3 CALM 0 0 0 0 1008.1 1008.0 2.0
20/08:00pm 26.2 33.0 25.5 96 0.5 CALM 0 0 0 0 1007.8 1007.7 2.0
20/07:30pm 26.1 32.3 25.2 95 0.6 SSE 2 4 1 2 1007.5 1007.4 2.0
20/07:00pm 27.0 33.6 25.8 93 0.8 SSE 2 2 1 1 1007.0 1006.9 2.0
20/06:30pm 27.8 34.4 26.4 92 1.0 ESE 4 6 2 3 1006.6 1006.5 2.0
20/06:00pm 28.4 34.7 24.8 81 2.5 CALM 0 4 0 2 1006.4 1006.3 2.0

Latest Capital City Observations: Canberra | Sydney | Melbourne | Brisbane | Adelaide | Perth | Hobart | Darwin

Other Formats:

Comma delimited format used in spreadsheet applications
http://www.bom.gov.au/fwo/IDD60901/IDD60901.95121.axf

JavaScript Object Notation format (JSON) in row-major order
http://www.bom.gov.au/fwo/IDD60901/IDD60901.95121.json